Time;durP1;ratioP1;P1;durP2;ratioP2;P2;SDS_P1;SDS_P2;PMS_P1;PMS_P2;Temp;Humidity;BMP_temperature;BMP_pressure;BME280_temperature;BME280_humidity;BME280_pressure;Samples;Min_cycle;Max_cycle;Signal;HPM_P1;HPM_P2
2023/11/01 00:01:07;;;;;;;2.80;1.65;;;;;;;9.04;100.00;97641.47;6111222;19;20007;-76
2023/11/01 00:03:08;;;;;;;2.30;1.77;;;;;;;9.04;100.00;97637.94;6111671;19;20351;-76
2023/11/01 00:05:08;;;;;;;4.28;1.90;;;;;;;9.02;100.00;97643.84;6110006;19;19994;-76
2023/11/01 00:07:09;;;;;;;2.00;1.80;;;;;;;8.99;100.00;97639.88;6110685;19;20007;-76
2023/11/01 00:09:09;;;;;;;2.78;1.95;;;;;;;8.96;100.00;97643.41;6111688;19;20035;-76
2023/11/01 00:11:09;;;;;;;3.67;1.67;;;;;;;8.98;100.00;97643.03;6112072;19;20428;-76
2023/11/01 00:13:10;;;;;;;3.05;1.88;;;;;;;9.00;100.00;97649.72;6111436;19;20003;-76
2023/11/01 00:15:10;;;;;;;2.65;2.00;;;;;;;8.99;100.00;97648.16;6109477;19;19999;-76
2023/11/01 00:17:11;;;;;;;3.17;1.83;;;;;;;9.00;100.00;97649.72;6111893;19;20011;-76
2023/11/01 00:19:12;;;;;;;2.72;2.10;;;;;;;9.03;100.00;97639.91;6110134;19;20007;-76
2023/11/01 00:21:12;;;;;;;5.40;2.15;;;;;;;9.07;100.00;97646.22;6107717;19;20010;-76
2023/11/01 00:23:12;;;;;;;3.15;2.00;;;;;;;9.09;100.00;97638.31;6111456;19;20029;-76
2023/11/01 00:25:13;;;;;;;3.10;1.77;;;;;;;9.13;100.00;97641.13;6109654;19;20469;-76
2023/11/01 00:27:13;;;;;;;4.60;1.98;;;;;;;9.18;100.00;97651.75;6110819;19;20002;-76
2023/11/01 00:29:14;;;;;;;2.67;1.80;;;;;;;9.17;100.00;97650.19;6105810;19;20395;-76
2023/11/01 00:31:15;;;;;;;4.15;1.77;;;;;;;9.16;100.00;97643.09;6104379;19;20498;-76
2023/11/01 00:33:15;;;;;;;3.03;1.67;;;;;;;9.19;100.00;97650.59;6104054;19;20117;-76
2023/11/01 00:35:15;;;;;;;3.20;1.85;;;;;;;9.15;100.00;97653.34;6101593;19;20003;-76
2023/11/01 00:37:16;;;;;;;2.00;1.70;;;;;;;9.17;100.00;97655.72;6103388;19;20006;-76
2023/11/01 00:39:16;;;;;;;4.35;1.70;;;;;;;9.20;100.00;97658.50;6103826;19;20010;-76
2023/11/01 00:41:16;;;;;;;3.90;1.60;;;;;;;9.20;100.00;97661.25;6102959;19;20803;-76
2023/11/01 00:43:17;;;;;;;2.20;1.65;;;;;;;9.20;100.00;97652.97;6104378;19;20036;-76
2023/11/01 00:45:17;;;;;;;4.00;1.75;;;;;;;9.20;100.00;97650.22;6102776;19;20599;-76
2023/11/01 00:47:17;;;;;;;2.08;1.50;;;;;;;9.20;100.00;97647.44;6103676;19;20007;-76
2023/11/01 00:49:18;;;;;;;2.15;1.70;;;;;;;9.23;100.00;97648.63;6102453;19;20003;-76
2023/11/01 00:51:18;;;;;;;4.70;1.60;;;;;;;9.25;100.00;97643.50;6102628;19;20037;-75
2023/11/01 00:53:18;;;;;;;4.80;1.73;;;;;;;9.24;100.00;97645.47;6103241;19;20042;-76
2023/11/01 00:55:19;;;;;;;4.25;1.60;;;;;;;9.28;100.00;97646.31;6102431;19;20040;-76
2023/11/01 00:57:19;;;;;;;2.22;1.70;;;;;;;9.25;100.00;97647.06;6101909;19;20011;-76
2023/11/01 00:59:20;;;;;;;2.38;1.52;;;;;;;9.29;100.00;97650.63;6102405;19;20015;-76
2023/11/01 01:01:20;;;;;;;3.97;1.50;;;;;;;9.27;100.00;97647.47;6101061;19;20018;-76
2023/11/01 01:03:20;;;;;;;2.55;1.65;;;;;;;9.29;100.00;97652.59;6103670;19;20072;-76
2023/11/01 01:05:22;;;;;;;3.08;1.63;;;;;;;9.30;100.00;97643.16;6101543;19;19998;-76
2023/11/01 01:07:22;;;;;;;2.30;1.65;;;;;;;9.28;100.00;97642.75;6103663;19;20003;-76
2023/11/01 01:09:23;;;;;;;2.08;1.40;;;;;;;9.28;100.00;97645.50;6102616;19;20013;-76
2023/11/01 01:11:23;;;;;;;1.60;1.35;;;;;;;9.23;100.00;97627.34;6103024;19;20566;-75
2023/11/01 01:13:24;;;;;;;5.03;1.60;;;;;;;9.21;100.00;97639.97;6103149;19;20037;-76
2023/11/01 01:15:25;;;;;;;2.25;1.50;;;;;;;9.14;100.00;97626.13;6101195;19;20006;-76
2023/11/01 01:17:25;;;;;;;4.50;1.58;;;;;;;9.16;100.00;97632.84;6103504;19;20007;-76
2023/11/01 01:19:26;;;;;;;2.05;1.35;;;;;;;9.13;100.00;97630.88;6102134;19;20023;-76
2023/11/01 01:21:26;;;;;;;1.90;1.40;;;;;;;9.16;100.00;97634.81;6100871;19;20006;-76
2023/11/01 01:23:27;;;;;;;3.80;1.75;;;;;;;9.09;100.00;97637.53;6103374;19;20007;-76
2023/11/01 01:25:27;;;;;;;2.08;1.67;;;;;;;9.06;100.00;97638.31;6102066;19;20006;-76
2023/11/01 01:27:27;;;;;;;3.75;1.50;;;;;;;9.04;100.00;97638.72;6102870;19;20010;-76
2023/11/01 01:29:28;;;;;;;2.97;1.40;;;;;;;9.04;100.00;97635.16;6105880;19;20103;-76
2023/11/01 01:31:29;;;;;;;3.08;1.70;;;;;;;9.04;100.00;97630.44;6109643;19;20020;-76
2023/11/01 01:33:29;;;;;;;2.42;1.42;;;;;;;9.06;100.00;97639.13;6110432;19;20010;-76
2023/11/01 01:35:29;;;;;;;1.70;1.40;;;;;;;9.05;100.00;97642.28;6108801;19;20037;-76
2023/11/01 01:37:30;;;;;;;2.65;1.33;;;;;;;9.04;100.00;97635.97;6110062;19;20009;-76
2023/11/01 01:39:30;;;;;;;2.08;1.70;;;;;;;9.06;100.00;97627.28;6108995;19;20007;-76
2023/11/01 01:41:31;;;;;;;1.85;1.55;;;;;;;9.03;100.00;97619.81;6110092;19;20027;-76
2023/11/01 01:43:31;;;;;;;2.28;1.40;;;;;;;9.05;100.00;97631.22;6109538;19;20220;-76
2023/11/01 01:45:31;;;;;;;1.50;1.30;;;;;;;9.06;100.00;97627.28;6109272;19;20007;-76
2023/11/01 01:47:33;;;;;;;2.78;1.20;;;;;;;9.08;100.00;97616.66;6107375;19;20013;-76
2023/11/01 01:49:33;;;;;;;2.00;1.13;;;;;;;9.08;100.00;97603.63;6108523;19;20014;-76
2023/11/01 01:51:34;;;;;;;5.68;2.08;;;;;;;9.08;100.00;97605.59;6109301;19;20014;-76
2023/11/01 01:53:44;;;;;;;2.05;1.45;;;;;;;9.12;100.00;97621.00;6109961;19;20339;-76
2023/11/01 01:55:44;;;;;;;3.63;1.20;;;;;;;9.12;100.00;97606.44;6107547;19;20023;-76
2023/11/01 01:57:45;;;;;;;1.60;1.20;;;;;;;9.13;100.00;97617.06;6109508;19;20344;-76
2023/11/01 01:59:45;;;;;;;1.65;1.30;;;;;;;9.12;100.00;97615.50;6109653;19;20560;-76
2023/11/01 02:01:48;;;;;;;2.15;1.30;;;;;;;9.11;100.00;97613.13;6109254;19;20007;-76
2023/11/01 02:03:48;;;;;;;2.35;1.20;;;;;;;9.11;100.00;97608.41;6108263;19;20002;-75
2023/11/01 02:05:49;;;;;;;7.47;1.83;;;;;;;9.09;100.00;97602.44;6107853;19;20031;-76
2023/11/01 02:07:49;;;;;;;2.47;1.20;;;;;;;9.11;100.00;97596.56;6109100;19;20006;-76
2023/11/01 02:09:50;;;;;;;1.55;1.10;;;;;;;9.11;100.00;97602.88;6108611;19;20330;-76
2023/11/01 02:11:50;;;;;;;5.53;1.52;;;;;;;9.11;100.00;97593.81;6107925;19;19999;-76
2023/11/01 02:13:50;;;;;;;2.65;1.52;;;;;;;9.13;100.00;97599.72;6109112;19;20028;-76
2023/11/01 02:15:51;;;;;;;1.95;1.20;;;;;;;9.12;100.00;97598.94;6107474;19;20014;-75
2023/11/01 02:17:51;;;;;;;2.38;1.38;;;;;;;9.18;100.00;97586.31;6108405;19;20013;-76
2023/11/01 02:19:51;;;;;;;2.80;1.75;;;;;;;9.22;100.00;97595.41;6108121;19;20010;-75
2023/11/01 02:21:52;;;;;;;2.63;1.52;;;;;;;9.25;100.00;97604.88;6108710;19;20003;-76
2023/11/01 02:23:55;;;;;;;3.40;2.28;;;;;;;9.28;100.00;97595.81;6107816;19;19994;-76
2023/11/01 02:25:55;;;;;;;1.58;1.42;;;;;;;9.30;100.00;97607.25;6108346;19;20029;-76
2023/11/01 02:27:56;;;;;;;2.92;1.65;;;;;;;9.28;100.00;97602.13;6107794;19;20331;-75
2023/11/01 02:29:56;;;;;;;2.42;1.77;;;;;;;9.28;100.00;97604.91;6108656;19;19994;-76
2023/11/01 02:31:57;;;;;;;2.65;1.90;;;;;;;9.27;100.00;97603.31;6108126;19;19995;-76
2023/11/01 02:33:57;;;;;;;2.97;1.88;;;;;;;9.26;100.00;97592.66;6108291;19;20010;-76
2023/11/01 02:35:57;;;;;;;3.17;2.03;;;;;;;9.28;100.00;97606.88;6107699;19;20003;-76
2023/11/01 02:37:58;;;;;;;3.05;1.50;;;;;;;9.30;100.00;97598.97;6108242;19;20014;-76
2023/11/01 02:39:58;;;;;;;2.30;1.40;;;;;;;9.29;100.00;97608.44;6107465;19;20006;-76
2023/11/01 02:41:59;;;;;;;3.25;1.75;;;;;;;9.29;100.00;97605.69;6108728;19;19999;-76
2023/11/01 02:43:59;;;;;;;2.38;1.60;;;;;;;9.29;100.00;97600.94;6107005;19;20036;-76
2023/11/01 02:45:59;;;;;;;4.13;1.70;;;;;;;9.30;100.00;97598.97;6108786;19;20007;-76
2023/11/01 02:48:00;;;;;;;2.42;1.65;;;;;;;9.28;100.00;97593.06;6107283;19;20006;-76
2023/11/01 02:50:00;;;;;;;2.63;1.90;;;;;;;9.30;100.00;97582.41;6108759;19;20014;-76
2023/11/01 02:52:00;;;;;;;2.78;1.50;;;;;;;9.31;100.00;97591.50;6107181;19;19998;-75
2023/11/01 02:54:01;;;;;;;6.78;1.92;;;;;;;9.32;100.00;97590.31;6106934;19;20366;-76
2023/11/01 02:56:01;;;;;;;3.00;1.50;;;;;;;9.31;100.00;97603.31;6107454;19;20309;-75
2023/11/01 02:58:03;;;;;;;3.63;1.67;;;;;;;9.32;100.00;97593.84;6106816;19;19998;-76
2023/11/01 03:00:08;;;;;;;3.58;1.60;;;;;;;9.33;100.00;97587.16;6106919;19;20002;-76
2023/11/01 03:02:08;;;;;;;3.38;2.45;;;;;;;9.35;100.00;97578.47;6106683;19;20084;-76
2023/11/01 03:04:10;;;;;;;2.15;1.58;;;;;;;9.36;100.00;97580.06;6104151;19;20510;-76
2023/11/01 03:06:10;;;;;;;1.65;1.40;;;;;;;9.35;100.00;97575.72;6108293;19;19998;-76
2023/11/01 03:08:11;;;;;;;2.22;1.52;;;;;;;9.41;100.00;97585.97;6104865;19;20005;-76
2023/11/01 03:10:11;;;;;;;2.00;1.80;;;;;;;9.40;100.00;97580.84;6108286;19;20006;-75
2023/11/01 03:12:12;;;;;;;2.50;1.80;;;;;;;9.38;100.00;97580.47;6106704;19;20003;-76
2023/11/01 03:14:12;;;;;;;4.03;1.58;;;;;;;9.42;100.00;97582.03;6106915;19;20003;-76
2023/11/01 03:16:12;;;;;;;1.92;1.30;;;;;;;9.41;100.00;97585.19;6106955;19;20002;-76
2023/11/01 03:18:13;;;;;;;3.13;1.48;;;;;;;9.42;100.00;97584.78;6107489;19;20003;-75
2023/11/01 03:20:13;;;;;;;1.77;1.40;;;;;;;9.41;100.00;97574.94;6106760;19;20024;-75
2023/11/01 03:22:14;;;;;;;3.20;1.17;;;;;;;9.36;100.00;97571.78;6106449;19;19999;-75
2023/11/01 03:24:14;;;;;;;2.35;1.50;;;;;;;9.39;100.00;97573.75;6106957;19;20003;-76
2023/11/01 03:26:14;;;;;;;3.47;1.55;;;;;;;9.42;100.00;97570.19;6107664;19;19999;-75
2023/11/01 03:28:15;;;;;;;2.28;1.48;;;;;;;9.45;100.00;97570.22;6107517;19;20032;-76
2023/11/01 03:30:15;;;;;;;3.08;1.63;;;;;;;9.42;100.00;97572.97;6106615;19;20002;-75
2023/11/01 03:32:16;;;;;;;2.15;1.40;;;;;;;9.42;100.00;97567.44;6105823;19;20026;-76
2023/11/01 03:34:17;;;;;;;2.67;1.58;;;;;;;9.43;100.00;97574.53;6105592;19;20057;-76
2023/11/01 03:36:17;;;;;;;2.20;1.38;;;;;;;9.43;100.00;97575.34;6108061;19;20007;-76
2023/11/01 03:38:19;;;;;;;3.72;1.73;;;;;;;9.40;100.00;97570.59;6106653;19;20017;-76
2023/11/01 03:40:19;;;;;;;3.20;1.50;;;;;;;9.39;100.00;97574.53;6105443;19;20006;-75
2023/11/01 03:42:21;;;;;;;2.95;1.65;;;;;;;9.39;100.00;97571.78;6106332;19;20003;-75
2023/11/01 03:44:21;;;;;;;5.30;1.40;;;;;;;9.37;100.00;97562.31;6106367;19;20018;-76
2023/11/01 03:46:21;;;;;;;2.58;1.40;;;;;;;9.33;100.00;97564.28;6105935;19;20042;-75
2023/11/01 03:48:21;;;;;;;2.83;1.33;;;;;;;9.34;100.00;97569.41;6106464;19;19998;-76
2023/11/01 03:50:22;;;;;;;4.72;1.55;;;;;;;9.32;100.00;97568.22;6106247;19;20118;-75
2023/11/01 03:52:23;;;;;;;2.35;1.83;;;;;;;9.30;100.00;97571.38;6106327;19;20010;-75
2023/11/01 03:54:23;;;;;;;3.72;1.70;;;;;;;9.31;100.00;97572.16;6105312;19;20006;-75
2023/11/01 03:56:23;;;;;;;4.57;1.48;;;;;;;9.32;100.00;97568.22;6107333;19;20323;-76
2023/11/01 03:58:24;;;;;;;3.75;1.50;;;;;;;9.36;100.00;97572.56;6105080;19;19999;-76
2023/11/01 04:00:24;;;;;;;2.95;1.70;;;;;;;9.37;100.00;97570.59;6106379;19;20011;-76
2023/11/01 04:02:27;;;;;;;2.42;1.48;;;;;;;9.41;100.00;97571.38;6105267;19;20030;-76
2023/11/01 04:04:28;;;;;;;3.00;1.38;;;;;;;9.41;100.00;97569.41;6105506;19;20007;-76
2023/11/01 04:06:28;;;;;;;2.95;1.40;;;;;;;9.42;100.00;97557.19;6105917;19;20006;-76
2023/11/01 04:08:29;;;;;;;3.38;1.20;;;;;;;9.44;100.00;97565.88;6106058;19;20010;-76
2023/11/01 04:10:29;;;;;;;2.85;1.50;;;;;;;9.42;100.00;97561.91;6108734;19;20013;-75
2023/11/01 04:12:30;;;;;;;3.67;1.55;;;;;;;9.41;100.00;97558.38;6111914;19;20034;-76
2023/11/01 04:14:31;;;;;;;2.13;1.38;;;;;;;9.43;100.00;97561.56;6109666;19;20010;-76
2023/11/01 04:16:32;;;;;;;4.32;1.42;;;;;;;9.43;100.00;97558.78;6112156;19;20006;-75
2023/11/01 04:18:34;;;;;;;4.40;1.58;;;;;;;9.47;100.00;97564.31;6109891;19;20082;-76
2023/11/01 04:20:34;;;;;;;4.30;1.45;;;;;;;9.48;100.00;97563.13;6111199;19;19999;-76
2023/11/01 04:22:37;;;;;;;1.75;1.50;;;;;;;9.46;100.00;97566.28;6110523;19;20094;-76
2023/11/01 04:24:37;;;;;;;2.97;1.60;;;;;;;9.47;100.00;97564.31;6110243;19;20006;-76
2023/11/01 04:26:38;;;;;;;2.17;1.40;;;;;;;9.47;100.00;97565.09;6111254;19;20392;-76
2023/11/01 04:28:38;;;;;;;4.18;1.48;;;;;;;9.50;100.00;97566.28;6102993;19;20294;-75
2023/11/01 04:30:39;;;;;;;4.78;1.52;;;;;;;9.47;100.00;97561.53;6110059;19;20007;-76
2023/11/01 04:32:40;;;;;;;4.55;1.58;;;;;;;9.47;100.00;97556.81;6113056;19;20017;-75
2023/11/01 04:34:40;;;;;;;2.65;1.30;;;;;;;9.47;100.00;97558.78;6110893;19;20019;-75
2023/11/01 04:36:43;;;;;;;4.22;1.48;;;;;;;9.46;100.00;97551.69;6112523;19;20010;-76
2023/11/01 04:38:43;;;;;;;;;;;;;;;9.48;100.00;97557.59;6110507;19;20376;-76
2023/11/01 04:40:43;;;;;;;2.88;1.40;;;;;;;9.44;100.00;97552.09;6111809;19;19954;-76
2023/11/01 04:42:46;;;;;;;2.33;1.40;;;;;;;9.42;100.00;97543.38;6110683;19;20027;-76
2023/11/01 04:44:47;;;;;;;2.03;1.50;;;;;;;9.41;100.00;97549.31;6109600;19;20030;-76
2023/11/01 04:46:47;;;;;;;1.70;1.40;;;;;;;9.47;100.00;97544.97;6111784;19;20014;-76
2023/11/01 04:48:48;;;;;;;2.13;1.42;;;;;;;9.43;100.00;97544.97;6110658;19;20007;-76
2023/11/01 04:50:48;;;;;;;4.85;2.10;;;;;;;9.44;100.00;97548.53;6110737;19;20011;-76
2023/11/01 04:52:48;;;;;;;3.55;2.17;;;;;;;9.42;100.00;97554.41;6111908;19;20080;-76
2023/11/01 04:54:49;;;;;;;7.38;3.70;;;;;;;9.48;100.00;97546.56;6109757;19;20018;-76
2023/11/01 04:56:49;;;;;;;3.95;2.17;;;;;;;9.48;100.00;97536.28;6111837;19;20041;-76
2023/11/01 04:58:50;;;;;;;3.72;2.05;;;;;;;9.52;100.00;97550.13;6110084;19;20267;-76
2023/11/01 05:00:50;;;;;;;4.90;2.25;;;;;;;9.52;100.00;97541.84;6110301;19;20388;-75
2023/11/01 05:02:51;;;;;;;4.95;1.50;;;;;;;9.51;100.00;97527.22;6110401;19;20020;-76
2023/11/01 05:04:51;;;;;;;2.40;1.52;;;;;;;9.51;100.00;97523.66;6109275;19;20027;-76
2023/11/01 05:06:52;;;;;;;1.75;1.27;;;;;;;9.50;100.00;97520.13;6110378;19;20578;-75
2023/11/01 05:08:53;;;;;;;1.73;1.35;;;;;;;9.48;100.00;97518.94;6112074;19;20447;-76
2023/11/01 05:10:54;;;;;;;2.30;1.40;;;;;;;9.48;100.00;97528.00;6109754;19;20011;-76
2023/11/01 05:12:54;;;;;;;1.38;1.17;;;;;;;9.47;100.00;97526.44;6110040;19;20600;-76
2023/11/01 05:14:54;;;;;;;2.95;1.30;;;;;;;9.46;100.00;97530.38;6109521;19;20018;-76
2023/11/01 05:16:55;;;;;;;2.97;1.52;;;;;;;9.41;100.00;97524.44;6110695;19;20325;-75
2023/11/01 05:18:55;;;;;;;4.30;1.60;;;;;;;9.44;100.00;97523.69;6110255;19;20027;-76
2023/11/01 05:20:56;;;;;;;1.67;1.33;;;;;;;9.46;100.00;97526.84;6110617;19;20011;-76
2023/11/01 05:22:56;;;;;;;2.33;1.73;;;;;;;9.45;100.00;97525.25;6109840;19;20018;-76
2023/11/01 05:24:58;;;;;;;3.90;2.67;;;;;;;9.44;100.00;97534.72;6109686;19;20027;-76
2023/11/01 05:26:59;;;;;;;3.97;1.67;;;;;;;9.47;100.00;97520.13;6110154;19;20094;-76
2023/11/01 05:29:01;;;;;;;2.17;1.50;;;;;;;9.45;100.00;97525.25;6106287;19;20073;-76
2023/11/01 05:31:01;;;;;;;4.03;2.00;;;;;;;9.47;100.00;97526.44;6102697;19;20010;-76
2023/11/01 05:33:02;;;;;;;2.92;1.85;;;;;;;9.48;100.00;97521.69;6103000;19;20010;-76
2023/11/01 05:35:03;;;;;;;4.10;2.70;;;;;;;9.52;100.00;97533.56;6101926;19;20466;-76
2023/11/01 05:37:04;;;;;;;4.13;2.85;;;;;;;9.49;100.00;97528.78;6103972;19;20010;-75
2023/11/01 05:39:05;;;;;;;3.95;2.75;;;;;;;9.51;100.00;97523.66;6103263;19;20573;-75
2023/11/01 05:41:08;;;;;;;3.92;2.90;;;;;;;9.52;100.00;97517.78;6102287;19;20474;-76
2023/11/01 05:43:09;;;;;;;3.75;2.22;;;;;;;9.51;100.00;97520.91;6102368;19;20016;-76
2023/11/01 05:45:15;;;;;;;5.53;2.95;;;;;;;9.50;100.00;97517.34;6101857;19;20487;-76
2023/11/01 05:47:16;;;;;;;4.65;2.90;;;;;;;9.48;100.00;97521.69;6102862;19;20018;-76
2023/11/01 05:49:16;;;;;;;4.63;2.22;;;;;;;9.46;100.00;97513.81;6103256;19;20007;-76
2023/11/01 05:51:17;;;;;;;3.80;2.60;;;;;;;9.45;100.00;97522.50;6101541;19;20002;-76
2023/11/01 05:53:17;;;;;;;6.05;2.65;;;;;;;9.46;100.00;97513.03;6103346;19;20011;-76
2023/11/01 05:55:18;;;;;;;3.97;2.40;;;;;;;9.46;100.00;97515.78;6101853;19;20050;-76
2023/11/01 05:57:18;;;;;;;3.25;1.98;;;;;;;9.47;100.00;97514.59;6102070;19;20506;-76
2023/11/01 05:59:19;;;;;;;3.13;1.60;;;;;;;9.42;100.00;97518.53;6102709;19;20472;-76
2023/11/01 06:01:20;;;;;;;4.82;1.80;;;;;;;9.45;100.00;97520.53;6102061;19;20494;-76
2023/11/01 06:03:20;;;;;;;3.00;1.90;;;;;;;9.45;100.00;97512.25;6102299;19;20040;-76
2023/11/01 06:05:22;;;;;;;2.63;1.50;;;;;;;9.43;100.00;97519.31;6101008;19;20014;-76
2023/11/01 06:07:23;;;;;;;1.92;1.40;;;;;;;9.42;100.00;97518.53;6103243;19;20006;-76
2023/11/01 06:09:23;;;;;;;7.40;1.60;;;;;;;9.39;100.00;97519.31;6101917;19;20247;-76
2023/11/01 06:11:24;;;;;;;2.55;1.40;;;;;;;9.41;100.00;97529.97;6101575;19;20338;-76
2023/11/01 06:13:24;;;;;;;2.75;1.48;;;;;;;9.41;100.00;97527.22;6102443;19;20273;-76
2023/11/01 06:15:25;;;;;;;4.80;1.40;;;;;;;9.46;100.00;97526.84;6100882;19;20002;-76
2023/11/01 06:17:25;;;;;;;1.67;1.20;;;;;;;9.49;100.00;97523.28;6101438;19;20006;-75
2023/11/01 06:19:25;;;;;;;2.72;1.10;;;;;;;9.55;100.00;97524.47;6102259;19;20006;-76
2023/11/01 06:21:26;;;;;;;1.65;1.50;;;;;;;9.56;100.00;97526.84;6102017;19;20017;-75
2023/11/01 06:23:27;;;;;;;1.67;1.17;;;;;;;9.57;100.00;97531.16;6101816;19;20010;-75
2023/11/01 06:25:27;;;;;;;1.50;1.13;;;;;;;9.57;100.00;97527.63;6098378;19;20055;-75
2023/11/01 06:27:30;;;;;;;2.28;1.00;;;;;;;9.53;100.00;97533.16;6101814;19;20041;-75
2023/11/01 06:29:31;;;;;;;1.08;0.90;;;;;;;9.53;100.00;97526.84;6104502;19;20040;-76
2023/11/01 06:31:31;;;;;;;1.50;0.95;;;;;;;9.53;100.00;97524.09;6108173;19;20014;-76
2023/11/01 06:33:31;;;;;;;0.80;0.77;;;;;;;9.51;100.00;97524.44;6106762;19;19999;-76
2023/11/01 06:35:32;;;;;;;1.20;0.80;;;;;;;9.50;100.00;97522.88;6107486;19;20605;-76
2023/11/01 06:37:32;;;;;;;1.10;1.00;;;;;;;9.51;100.00;97518.94;6108482;19;20023;-75
2023/11/01 06:39:32;;;;;;;1.48;1.00;;;;;;;9.51;100.00;97518.94;6107316;19;20002;-75
2023/11/01 06:41:33;;;;;;;3.03;1.00;;;;;;;9.53;100.00;97524.09;6108148;19;20090;-75
2023/11/01 06:43:33;;;;;;;2.15;0.90;;;;;;;9.53;100.00;97513.81;6106014;19;20344;-75
2023/11/01 06:45:35;;;;;;;1.17;1.00;;;;;;;9.61;100.00;97511.84;6104245;19;20062;-75
2023/11/01 06:47:36;;;;;;;3.15;1.10;;;;;;;9.67;100.00;97517.75;6107546;19;20422;-76
2023/11/01 06:49:39;;;;;;;1.90;0.98;;;;;;;9.68;100.00;97520.13;6107580;19;20010;-75
2023/11/01 06:51:40;;;;;;;1.63;0.90;;;;;;;9.70;100.00;97516.97;6107418;19;20007;-75
2023/11/01 06:53:40;;;;;;;1.27;1.00;;;;;;;9.75;100.00;97511.03;6105949;19;20010;-76
2023/11/01 06:55:40;;;;;;;3.47;1.10;;;;;;;9.76;100.00;97518.13;6107090;19;20002;-75
2023/11/01 06:57:41;;;;;;;6.57;1.95;;;;;;;9.75;100.00;97524.84;6106763;19;20432;-75
2023/11/01 06:59:41;;;;;;;1.40;1.10;;;;;;;9.77;100.00;97517.75;6105499;19;20355;-75
2023/11/01 07:01:42;;;;;;;1.95;1.00;;;;;;;9.82;100.00;97525.63;6105285;19;19999;-75
2023/11/01 07:03:42;;;;;;;2.45;1.30;;;;;;;9.84;100.00;97522.47;6108012;19;20007;-76
2023/11/01 07:05:43;;;;;;;1.25;0.85;;;;;;;9.82;100.00;97528.41;6104333;19;20007;-75
2023/11/01 07:07:43;;;;;;;3.60;1.20;;;;;;;9.88;100.00;97522.47;6107324;19;20016;-75
2023/11/01 07:09:43;;;;;;;1.80;0.90;;;;;;;9.87;100.00;97526.44;6107211;19;20120;-76
2023/11/01 07:11:43;;;;;;;1.00;0.90;;;;;;;9.89;100.00;97522.09;6107199;19;20007;-75
2023/11/01 07:13:44;;;;;;;3.33;1.10;;;;;;;9.90;100.00;97518.13;6107519;19;20006;-75
2023/11/01 07:15:44;;;;;;;1.55;1.00;;;;;;;9.95;100.00;97514.19;6107084;19;20006;-75
2023/11/01 07:17:45;;;;;;;1.65;1.15;;;;;;;9.91;100.00;97521.69;6106879;19;20009;-75
2023/11/01 07:19:45;;;;;;;1.10;1.00;;;;;;;9.88;100.00;97514.19;6107614;19;20454;-76
2023/11/01 07:21:46;;;;;;;1.42;1.00;;;;;;;9.84;100.00;97505.91;6107201;19;20470;-76
2023/11/01 07:23:47;;;;;;;2.20;1.10;;;;;;;9.82;100.00;97508.28;6107416;19;20023;-75
2023/11/01 07:25:47;;;;;;;2.78;0.90;;;;;;;9.82;100.00;97514.59;6105000;19;20006;-75
2023/11/01 07:27:48;;;;;;;1.40;0.95;;;;;;;9.83;100.00;97512.59;6107639;19;20009;-76
2023/11/01 07:29:48;;;;;;;1.67;1.10;;;;;;;9.84;100.00;97508.66;6107329;19;20006;-75
2023/11/01 07:31:48;;;;;;;4.35;1.52;;;;;;;9.88;100.00;97503.94;6107039;19;20011;-76
2023/11/01 07:33:49;;;;;;;1.42;1.00;;;;;;;9.88;100.00;97497.63;6106506;19;20010;-75
2023/11/01 07:35:49;;;;;;;1.20;1.10;;;;;;;9.90;100.00;97500.75;6106646;19;20343;-75
2023/11/01 07:37:49;;;;;;;2.28;1.20;;;;;;;9.91;100.00;97505.09;6106716;19;20491;-75
2023/11/01 07:39:50;;;;;;;2.95;2.03;;;;;;;9.90;100.00;97498.78;6107044;19;20424;-75
2023/11/01 07:41:50;;;;;;;4.47;1.83;;;;;;;9.93;100.00;97509.06;6107336;19;20395;-76
2023/11/01 07:43:51;;;;;;;3.00;1.33;;;;;;;9.95;100.00;97506.69;6106976;19;19999;-75
2023/11/01 07:45:52;;;;;;;1.55;1.10;;;;;;;9.98;100.00;97499.56;6110010;19;20007;-76
2023/11/01 07:47:53;;;;;;;2.83;1.20;;;;;;;9.99;100.00;97504.69;6112874;19;20035;-75
2023/11/01 07:49:53;;;;;;;1.77;1.00;;;;;;;10.00;100.00;97497.97;6113257;19;20010;-75
2023/11/01 07:51:54;;;;;;;1.25;1.15;;;;;;;10.06;100.00;97501.13;6109646;19;20328;-76
2023/11/01 07:53:54;;;;;;;1.88;1.40;;;;;;;10.09;100.00;97505.84;6112366;19;20006;-76
2023/11/01 07:55:55;;;;;;;3.25;1.67;;;;;;;10.17;100.00;97504.66;6111313;19;20006;-75
2023/11/01 07:57:55;;;;;;;2.70;1.60;;;;;;;10.26;100.00;97498.72;6112332;19;20007;-76
2023/11/01 07:59:56;;;;;;;3.15;1.05;;;;;;;10.29;100.00;97501.50;6111478;19;20007;-75
2023/11/01 08:01:56;;;;;;;2.65;1.50;;;;;;;10.31;100.00;97501.09;6112157;19;20030;-75
2023/11/01 08:03:57;;;;;;;4.63;1.90;;;;;;;10.29;100.00;97493.22;6111302;19;20007;-76
2023/11/01 08:05:57;;;;;;;4.05;1.33;;;;;;;10.30;100.00;97491.22;6111972;19;19999;-76
2023/11/01 08:07:58;;;;;;;3.85;1.30;;;;;;;10.32;100.00;97486.06;6111744;19;20031;-75
2023/11/01 08:09:58;;;;;;;2.03;1.10;;;;;;;10.31;100.00;97490.03;6112167;19;20036;-75
2023/11/01 08:11:58;;;;;;;3.85;1.85;;;;;;;10.34;100.00;97495.56;6111146;19;20408;-76
2023/11/01 08:13:59;;;;;;;3.13;1.05;;;;;;;10.32;100.00;97481.34;6111519;19;20472;-75
2023/11/01 08:15:59;;;;;;;2.75;1.17;;;;;;;10.28;100.00;97488.09;6112106;19;20038;-75
2023/11/01 08:18:02;;;;;;;3.15;1.00;;;;;;;10.29;100.00;97486.88;6112078;19;20007;-76
2023/11/01 08:20:04;;;;;;;8.68;1.50;;;;;;;10.32;100.00;97488.84;6110631;19;20472;-75
2023/11/01 08:22:04;;;;;;;3.23;1.33;;;;;;;10.32;100.00;97486.88;6110573;19;20012;-75
2023/11/01 08:24:05;;;;;;;1.42;1.13;;;;;;;10.35;100.00;97479.78;6110777;19;20329;-75
2023/11/01 08:26:05;;;;;;;1.98;1.10;;;;;;;10.38;100.00;97476.97;6111367;19;20387;-75
2023/11/01 08:28:06;;;;;;;1.77;1.20;;;;;;;10.40;100.00;97488.41;6110958;19;20455;-75
2023/11/01 08:30:08;;;;;;;3.60;1.00;;;;;;;10.41;100.00;97478.16;6111873;19;20478;-75
2023/11/01 08:32:09;;;;;;;4.13;1.20;;;;;;;10.44;100.00;97485.66;6110651;19;20002;-76
2023/11/01 08:34:10;;;;;;;1.52;1.20;;;;;;;10.51;100.00;97485.63;6110629;19;20003;-75
2023/11/01 08:36:10;;;;;;;1.23;1.00;;;;;;;10.50;100.00;97469.41;6111013;19;20380;-75
2023/11/01 08:38:11;;;;;;;1.20;1.10;;;;;;;10.55;100.00;97478.09;6112323;19;19995;-76
2023/11/01 08:40:11;;;;;;;1.90;1.30;;;;;;;10.60;100.00;97488.75;6111153;19;20002;-75
2023/11/01 08:42:12;;;;;;;3.13;1.30;;;;;;;10.65;100.00;97484.75;6111173;19;20005;-75
2023/11/01 08:44:12;;;;;;;6.47;1.98;;;;;;;10.65;100.00;97488.31;6108163;19;20701;-75
2023/11/01 08:46:13;;;;;;;6.03;2.67;;;;;;;10.62;100.00;97491.09;6111283;19;19995;-75
2023/11/01 08:48:13;;;;;;;3.47;1.80;;;;;;;10.67;100.00;97493.44;6110701;19;20072;-75
2023/11/01 08:50:13;;;;;;;7.38;3.72;;;;;;;10.66;100.00;97491.88;6111242;19;20319;-75
2023/11/01 08:52:14;;;;;;;5.85;2.55;;;;;;;10.68;100.00;97483.97;6110931;19;20001;-75
2023/11/01 08:54:16;;;;;;;5.15;2.10;;;;;;;10.71;100.00;97485.13;6108446;19;20842;-75
2023/11/01 08:56:16;;;;;;;5.40;2.80;;;;;;;10.76;100.00;97484.69;6110019;19;19999;-75
2023/11/01 08:58:16;;;;;;;5.47;2.15;;;;;;;10.81;100.00;97478.75;6111427;19;20658;-75
2023/11/01 09:00:17;;;;;;;5.47;2.40;;;;;;;10.85;100.00;97488.63;6108460;19;20002;-75
2023/11/01 09:02:18;;;;;;;6.65;2.53;;;;;;;10.91;100.00;97486.19;6110759;19;20019;-75
2023/11/01 09:04:18;;;;;;;6.63;2.67;;;;;;;10.94;100.00;97490.94;6109857;19;20017;-75
2023/11/01 09:06:19;;;;;;;8.50;2.67;;;;;;;11.01;100.00;97477.06;6110903;19;19995;-75
2023/11/01 09:08:20;;;;;;;4.47;2.47;;;;;;;11.04;100.00;97481.78;6110639;19;20005;-75
2023/11/01 09:10:20;;;;;;;5.45;2.00;;;;;;;11.07;100.00;97480.97;6111049;19;20002;-75
2023/11/01 09:12:21;;;;;;;3.97;2.65;;;;;;;11.11;100.00;97481.75;6110133;19;20412;-75
2023/11/01 09:14:21;;;;;;;2.00;1.42;;;;;;;11.18;100.00;97483.69;6109781;19;20557;-75
2023/11/01 09:16:22;;;;;;;3.53;1.40;;;;;;;11.22;100.00;97485.22;6110244;19;20465;-75
2023/11/01 09:18:22;;;;;;;2.75;1.25;;;;;;;11.34;100.00;97485.94;6110871;19;20455;-75
2023/11/01 09:20:23;;;;;;;2.50;1.35;;;;;;;11.32;100.00;97485.53;6109755;19;20395;-75
2023/11/01 09:22:23;;;;;;;2.28;1.40;;;;;;;11.34;100.00;97483.19;6108011;19;20010;-75
2023/11/01 09:24:23;;;;;;;1.83;1.05;;;;;;;11.34;100.00;97489.50;6107947;19;20727;-75
2023/11/01 09:26:24;;;;;;;2.33;1.13;;;;;;;11.36;100.00;97481.56;6110686;19;20006;-75